Weather observations for the past three days for
East Hampton Town Airport
Imperial (Metric)
Date Time (edt) Wind (mph) Vis. (mi.) Weather Sky Cond. Temperature (ºF) Relative Humidity Wind Chill (°F) Heat Index (°F) Pressure Precipitation (in)
Air Dwpt 6 hour altimeter (in) sea level (mb) 1 hr 3 hr 6 hr
Max. Min.
09 10:55 S 9 10.00 Mostly Cloudy SCT100 BKN120 57 45.1 65% 29.94 0.0
09 10:35 S 6 10.00 Overcast SCT100 OVC120 55.8 44.6 66% 29.94 0.0
09 10:15 S 7 10.00 Overcast OVC090 55.2 44.2 67% 29.94 0.0
09 09:55 S 6 10.00 Overcast OVC090 54 43.3 67% 29.94 0.0
09 09:15 S 8 10.00 Partly Cloudy SCT085 53.8 42.8 67% 29.94 0.0
09 08:55 SW 9 10.00 Partly Cloudy SCT085 56.3 43 61% 29.94 0.0
09 08:35 SW 12 G 17 10.00 Overcast OVC085 55.6 43.5 64% 29.94 0.0
09 08:15 SW 6 10.00 Mostly Cloudy BKN090 BKN120 54.7 44.2 68% 29.94 0.0
09 07:55 SW 6 10.00 Partly Cloudy SCT090 53.8 45 53.8 48.9 72% 29.94 0.0
09 07:35 S 5 10.00 Partly Cloudy SCT090 SCT110 52 45 77% 29.95 0.0
09 07:15 S 6 10.00 Mostly Cloudy SCT090 BKN110 50.9 45 80% 29.94 0.0
09 06:55 S 7 10.00 Overcast OVC090 50.2 45.1 83% 29.94 0.0
09 06:35 Calm 10.00 Overcast OVC090 49.3 45.3 86% 29.94 0.0
09 06:15 Calm 10.00 Overcast OVC090 49.5 45 85% 29.93 0.0
09 05:35 Calm 10.00 Overcast OVC080 49.5 44.6 83% 29.93 0.0
09 05:15 Calm 10.00 Overcast OVC090 49.3 45 85% 29.93 0.0
09 04:35 SE 3 10.00 Light Rain OVC070 49.1 44.6 85% 29.93 0.0
09 04:15 SE 3 10.00 Overcast SCT080 OVC090 49.1 44.1 83% 29.93 0.0
09 03:55 Calm 10.00 Overcast OVC080 49.1 43.7 82% 29.93 0.0
09 03:35 Calm 10.00 Overcast OVC080 49.1 43.7 82% 29.93 0.0
09 03:15 S 3 10.00 Overcast OVC080 49.1 43.5 81% 29.94 0.0
09 02:55 Calm 10.00 Overcast BKN070 OVC080 49.1 43.3 81% 29.94 0.0
09 02:35 Calm 10.00 Overcast BKN070 OVC080 49.1 43.3 81% 29.94 0.0
09 02:15 S 3 10.00 Overcast OVC070 49.1 43 80% 29.94 0.0
09 01:55 Calm 10.00 Overcast OVC070 49.1 42.8 52 49.1 79% 29.94 0.0
09 01:35 Calm 10.00 Overcast OVC070 49.6 42.8 77% 29.94 0.0
09 01:15 Calm 10.00 Overcast OVC080 49.8 42.6 76% 29.94 0.0
09 00:55 Calm 10.00 Overcast BKN080 OVC100 50.4 42.4 74% 29.94 0.0
09 00:35 Calm 10.00 Overcast BKN080 OVC100 50.7 42.3 73% 29.94 0.0
09 00:15 SW 3 10.00 Overcast OVC080 50.9 41.9 71% 29.94 0.0
08 23:55 SW 3 10.00 Overcast OVC090 50.9 41.9 71% 29.94 0.0
08 23:35 SW 5 10.00 Overcast SCT080 OVC100 50.9 41.9 71% 29.94 0.0
08 23:15 SW 5 10.00 Overcast OVC100 50.2 42.4 75% 29.95 0.0
08 22:55 SW 5 10.00 Mostly Cloudy BKN100 49.6 42.4 76% 48 29.94 0.0
08 22:35 SW 6 10.00 Partly Cloudy SCT090 49.1 41.4 75% 47 29.94 0.0
08 22:15 SW 5 10.00 Mostly Cloudy BKN090 49.3 41.5 75% 48 29.94 0.0
08 21:55 SW 6 10.00 Partly Cloudy SCT090 49.5 41 73% 48 29.94 0.0
08 21:35 SW 6 10.00 Fair CLR 49.5 40.6 72% 48 29.93 0.0
08 21:15 SW 6 10.00 Fair CLR 50 40.3 69% 48 29.93 0.0
08 20:55 SW 8 10.00 Partly Cloudy SCT080 50 39.9 68% 47 29.91 0.0
08 20:35 SW 6 10.00 Partly Cloudy SCT080 SCT100 50.4 39.2 66% 29.9 0.0
08 20:15 SW 8 10.00 Mostly Cloudy BKN090 51.3 38.5 62% 29.9 0.0
08 19:55 SW 9 10.00 Overcast OVC090 52 37.8 61.7 52 59% 29.89 0.0
08 19:35 SW 7 10.00 Overcast OVC090 52.7 37.4 56% 29.89 0.0
08 19:15 SW 9 10.00 Overcast OVC090 53.2 37.8 56% 29.88 0.0
08 18:55 SW 8 10.00 Overcast OVC090 54 37.6 54% 29.87 0.0
08 18:35 SW 8 10.00 Overcast OVC100 54.5 37 52% 29.87 0.0
08 18:15 SW 14 10.00 Overcast SCT070 OVC100 55 36 49% 29.87 0.0
08 17:55 W 10 G 23 10.00 Partly Cloudy SCT075 SCT110 57.4 32 38% 29.87 0.0
08 17:35 W 13 G 22 10.00 Mostly Cloudy BKN075 59.5 32.2 36% 29.86 0.0
08 17:15 W 10 G 23 10.00 Overcast BKN075 OVC090 58.6 32.7 38% 29.86 0.0
08 16:55 W 14 G 22 10.00 Overcast OVC080 58.3 31.3 36% 29.86 0.0
08 16:35 SW 14 G 20 10.00 Overcast SCT050 OVC080 56.8 37.4 48% 29.86 0.0
08 16:15 W 10 G 18 10.00 Mostly Cloudy SCT050 BKN075 BKN110 58.8 37 44% 29.85 0.0
08 15:55 SW 15 G 21 10.00 Partly Cloudy SCT110 59.2 36.7 43% 29.85 0.0
08 15:35 SW 13 10.00 Partly Cloudy SCT070 58.6 37.2 45% 29.84 0.0
08 15:15 SW 14 G 21 10.00 Partly Cloudy SCT055 BKN070 SCT100 58.1 34.5 41% 29.85 0.0
08 14:55 SW 16 G 25 10.00 Mostly Cloudy BKN070 BKN100 57.7 32.2 38% 29.85 0.0
08 14:35 SW 16 G 24 10.00 Overcast BKN070 OVC080 58.3 31.8 37% 29.86 0.0
08 14:15 SW 17 G 25 10.00 Mostly Cloudy SCT070 BKN080 60.6 33.4 36% 29.84 0.0
08 13:55 SW 13 G 20 10.00 Mostly Cloudy SCT070 BKN085 58.3 34.2 60.8 50.2 40% 29.85 0.0
08 13:35 SW 16 G 23 10.00 Partly Cloudy SCT070 60.8 35.4 39% 29.85 0.0
08 13:15 SW 14 G 17 10.00 Fair CLR 59.5 37.9 45% 29.86 0.0
08 12:55 SW 15 G 20 10.00 Partly Cloudy SCT050 57.7 39 50% 29.86 0.0
08 12:35 SW 17 G 23 10.00 Partly Cloudy SCT043 SCT050 57.7 39.4 51% 29.86 0.0
08 12:15 SW 14 G 18 10.00 Partly Cloudy SCT043 59 37.2 44% 29.87 0.0
08 11:55 S 13 G 17 10.00 Fair CLR 57.6 35.2 43% 29.88 0.0
08 11:35 S 9 10.00 Fair CLR 57.6 35.8 44% 29.87 0.0
08 11:15 SW 7 10.00 Fair CLR 57.4 30.6 36% 29.88 0.0
08 10:55 SW 10 G 16 10.00 Fair CLR 57.4 30.9 37% 29.88 0.0
08 10:35 W 10 10.00 Fair CLR 57 31.8 39% 29.88 0.0
08 10:15 W 9 G 16 10.00 Fair CLR 55 32.9 43% 29.89 0.0
08 09:55 NW 9 10.00 Fair CLR 55.9 32.5 41% 29.89 0.0
08 09:35 NW 10 10.00 Partly Cloudy SCT080 53.4 32.9 46% 29.89 0.0
08 09:15 NW 10 10.00 Overcast OVC080 53.8 35.1 49% 29.89 0.0
08 08:55 NW 8 10.00 Overcast OVC070 52 33.4 49% 29.89 0.0
08 08:35 W 7 10.00 Overcast OVC070 50.9 32.5 50% 29.89 0.0
08 08:15 NW 5 10.00 Overcast OVC070 50.4 33.6 53% 29.88 0.0
08 07:55 NW 6 10.00 Overcast BKN070 OVC080 50.2 32.7 50.5 36.5 51% 29.87 0.0
08 07:35 NW 6 10.00 Overcast SCT060 OVC070 50.5 33.1 51% 29.87 0.0
08 07:15 NW 5 10.00 Overcast SCT065 OVC075 49.6 33.1 53% 48 29.87 0.0
08 06:55 NW 3 10.00 Overcast OVC075 49.3 32.2 52% 29.86 0.0
08 06:35 N 7 10.00 Overcast BKN075 OVC090 49.3 31.1 50% 47 29.86 0.0
08 06:15 NW 3 10.00 Overcast OVC090 49.1 29.5 47% 29.85 0.0
08 05:55 NW 3 10.00 Overcast OVC090 49.1 29.5 47% 29.85 0.0
08 05:35 NW 5 10.00 Overcast OVC090 49.6 30.2 47% 48 29.85 0.0
08 05:15 W 6 10.00 Overcast OVC090 49.5 30.2 48% 48 29.85 0.0
08 04:55 NW 7 10.00 Overcast OVC100 49.3 30.6 49% 47 29.84 0.0
08 04:35 NW 7 10.00 Mostly Cloudy BKN090 BKN110 49.1 31.3 50% 47 29.84 0.0
08 04:15 W 5 10.00 Mostly Cloudy BKN080 48.4 31.3 52% 47 29.84 0.0
08 03:55 W 6 10.00 Overcast BKN080 OVC095 47.8 31.6 54% 46 29.84 0.0
08 03:35 NW 7 10.00 Overcast OVC085 42.8 32.7 68% 39 29.82 0.0
08 03:15 W 3 10.00 Mostly Cloudy BKN085 37.9 33.1 83% 29.81 0.0
08 02:55 Calm 10.00 Fair CLR 36.7 32.2 84% 29.8 0.0
08 02:35 Calm 10.00 Fair CLR 36.9 32.5 84% 29.8 0.0
08 02:15 Calm 10.00 Fair CLR 37.4 33.1 84% 29.8 0.0
08 01:55 Calm 10.00 Fair CLR 38.1 33.1 50.4 37.4 82% 29.79 0.0
08 01:35 Calm 10.00 Fair CLR 37.8 33.8 86% 29.79 0.0
08 01:15 Calm 10.00 Fair CLR 39.7 35.4 85% 29.79 0.0
08 00:55 Calm 10.00 Fair CLR 40.8 36.3 84% 29.8 0.0
08 00:35 Calm 10.00 Fair CLR 41.4 37.2 85% 29.8 0.0
08 00:15 Calm 10.00 Fair CLR 40.8 38.1 90% 29.81 0.0
07 23:55 Calm 10.00 Fair CLR 41 37.9 89% 29.8 0.0
07 23:35 Calm 10.00 Fair CLR 41.2 38.1 89% 29.8 0.0
07 23:15 Calm 10.00 Fair CLR 41.2 38.7 91% 29.8 0.0
07 22:55 Calm 10.00 Fair CLR 41.9 39 90% 29.8 0.0
07 22:35 Calm 10.00 Fair CLR 43 39.4 87% 29.8 0.0
07 22:15 Calm 10.00 Fair CLR 43.7 39.2 84% 29.81 0.0
07 21:55 Calm 10.00 Fair CLR 46.8 39.7 77% 29.81 0.0
07 21:35 W 3 10.00 Fair CLR 48.2 40.5 75% 29.81 0.0
07 21:15 W 5 10.00 Partly Cloudy SCT080 48.2 40.3 74% 47 29.79 0.0
07 20:55 Calm 10.00 Mostly Cloudy BKN080 49.3 41 73% 29.8 0.0
07 20:35 W 3 10.00 Partly Cloudy SCT080 50 41 71% 29.79 0.0
07 20:15 SW 3 10.00 Partly Cloudy SCT080 50.2 41.4 72% 29.78 0.0
07 19:55 SW 3 10.00 Fair CLR 50.9 41.7 61.9 50.9 71% 29.78 0.0
07 19:35 SW 6 10.00 Fair CLR 52.3 41 65% 29.76 0.0
07 19:15 SW 9 10.00 Fair CLR 54.1 40.5 60% 29.76 0.0
07 18:55 SW 7 10.00 Fair CLR 54.9 40.3 58% 29.76 0.0
07 18:35 W 5 10.00 Fair CLR 59.5 25.9 28% 29.75 0.0
07 18:15 NW 3 10.00 Fair CLR 60.3 25 26% 29.74 0.0
07 17:55 NW 8 10.00 Fair CLR 60.8 23.7 24% 29.74 0.0
07 17:35 W 5 10.00 Fair CLR 61.5 24.6 24% 29.74 0.0
07 17:15 W 9 10.00 Fair CLR 61.2 23.4 23% 29.74 0.0
07 16:55 W 8 10.00 Fair CLR 61.3 23.4 23% 29.74 0.0
07 16:35 NW 8 10.00 Fair CLR 61.7 24.3 24% 29.73 0.0
07 16:15 NW 7 G 16 10.00 Fair CLR 61 23.7 24% 29.73 0.0
07 15:55 W 9 10.00 Fair CLR 60.6 23.2 24% 29.74 0.0
07 15:35 NW 9 10.00 Fair CLR 60.6 23.4 24% 29.74 0.0
07 15:15 NW 12 G 16 10.00 Fair CLR 60.1 24.1 25% 29.74 0.0
07 14:55 W 8 G 17 10.00 Fair CLR 60.4 23.4 24% 29.76 0.0
07 14:35 NW 7 G 20 10.00 Fair CLR 61 25.2 25% 29.76 0.0
07 14:15 W 12 G 16 10.00 Fair CLR 60.1 26.4 28% 29.77 0.0
07 13:55 W 12 G 17 10.00 Fair CLR 58.8 24.8 59.4 48.2 27% 29.78 0.0 0.01
07 13:35 W 12 G 17 10.00 Fair CLR 59.2 27 29% 29.78 0.0
07 13:15 NW 12 G 20 10.00 Fair CLR 58.6 25.2 28% 29.79 0.0
07 12:55 NW 12 G 23 10.00 Fair CLR 57.7 28.6 33% 29.79 0.0
07 12:35 NW 7 G 17 10.00 Fair CLR 57.4 30.7 36% 29.8 0.0
07 12:15 W 7 G 18 10.00 Fair CLR 57.7 31.3 37% 29.81 0.0
07 11:55 W 12 G 18 10.00 Fair CLR 56.7 31.5 38% 29.82 0.0
07 11:35 NW 8 G 17 10.00 Fair CLR 55.2 32.4 42% 29.82 0.0
07 11:15 NW 13 G 20 10.00 Fair CLR 54.9 35.1 47% 29.82 0.0
07 10:55 W 12 G 16 10.00 Partly Cloudy SCT090 54.3 36.7 52% 29.82 0.0 0.01
07 10:35 NW 8 10.00 Partly Cloudy SCT090 54.7 39.7 57% 29.83 0.0
07 10:15 N 12 G 16 10.00 Mostly Cloudy BKN090 52 37.8 59% 29.82 0.0
07 09:55 NW 12 G 16 10.00 Mostly Cloudy BKN100 52.3 40.3 64% 29.81 0.0
07 09:35 N 12 G 20 10.00 Overcast OVC090 50.5 40.3 68% 29.82 0.0
07 09:15 NW 10 10.00 Overcast OVC080 49.6 42.1 75% 46 29.83 0.0
07 08:55 NW 8 10.00 Overcast OVC080 49.1 44.2 83% 46 29.83 0.0 0.01
07 08:35 NW 7 10.00 Light Drizzle OVC070 48.4 44.8 87% 46 29.82 0.0 0.01
07 08:15 NW 5 10.00 Light Rain OVC070 48.2 44.8 88% 47 29.82 0.0 0.01
07 07:55 NW 6 10.00 Overcast OVC060 48.2 44.8 55.4 48.2 88% 46 29.81 0.0 0.12
07 07:35 NW 5 10.00 Rain OVC060 48.2 45.5 90% 47 29.81 0.0
07 06:55 NW 7 10.00 Overcast OVC060 48.7 45.9 90% 46 29.8 0.0
07 06:35 NW 6 10.00 Overcast OVC060 49.1 46.8 92% 47 29.8 0.0
07 06:15 NW 5 10.00 Overcast BKN065 OVC075 49.1 47.5 94% 48 29.78 0.0
07 05:55 NW 5 10.00 Light Rain OVC055 49.5 48.2 95% 48 29.78 0.0 0.01
07 05:35 NW 6 10.00 Light Rain SCT007 SCT011 OVC055 50 48.4 94% 48 29.77 0.0 0.01
07 05:15 NW 8 10.00 Light Rain BKN007 OVC055 50.2 49.1 96% 29.77 0.0
07 04:55 N 9 10.00 Rain OVC009 50.7 49.3 95% 29.76 0.0 0.03 0.11
07 04:35 NW 5 10.00 Rain OVC009 51.1 49.3 94% 29.77 0.0 0.02
07 04:15 NW 3 10.00 Light Rain BKN007 BKN025 OVC035 51.4 50 95% 29.76 0.0 0.01
07 03:55 NW 10 10.00 Heavy Rain SCT011 BKN033 OVC049 52 50 93% 29.78 0.0 0.04
07 03:35 N 10 7.00 Rain BKN031 BKN037 OVC050 52.9 50 90% 29.74 0.0 0.02
07 03:15 NW 12 10.00 Overcast OVC029 54 51.3 91% 29.75 0.0
07 02:55 NW 6 10.00 Overcast SCT006 OVC027 54.7 54.1 98% 29.74 0.0
07 02:35 NW 6 7.00 Overcast OVC006 55.4 55.4 100% 29.73 0.0
07 02:15 NW 3 5.00 Fog/Mist OVC006 54.5 54.5 100% 29.73 0.0
07 01:55 Calm 5.00 Light Rain BKN008 BKN070 OVC090 53.8 53.8 54.5 51.8 100% 29.73 0.0
07 01:35 Calm 5.00 Rain SCT033 OVC100 54 53.1 97% 29.73 0.0
07 01:15 Calm 7.00 Overcast SCT009 BKN065 OVC110 54.1 52.7 95% 29.74 0.0
07 00:35 SW 3 7.00 Mostly Cloudy SCT029 SCT060 BKN070 53.8 52.7 96% 29.77 0.0
07 00:15 NW 5 7.00 Overcast SCT031 BKN075 OVC090 53.8 52.7 96% 29.76 0.0
06 23:55 SW 5 7.00 Overcast BKN075 OVC090 53.6 52.7 97% 29.76 0.0
06 23:15 SW 7 7.00 Overcast OVC005 52.2 51.6 98% 29.76 0.0
06 22:55 SW 10 5.00 Fog/Mist OVC005 52 51.1 97% 29.78 0.0
06 22:35 SW 8 7.00 Overcast OVC005 52 50.9 96% 29.78 0.0
06 21:55 SW 9 7.00 Overcast SCT005 BKN044 OVC100 52.7 51.1 94% 29.78 0.0
06 21:35 SW 10 G 16 7.00 Overcast BKN007 OVC044 52.7 51.1 94% 29.78 0.0
06 21:15 SW 10 G 16 7.00 Overcast BKN007 OVC040 53.6 51.4 92% 29.78 0.0
06 20:55 SW 10 7.00 Overcast BKN007 OVC038 54.1 52.2 93% 29.78 0.0
06 20:35 SW 9 G 17 7.00 Overcast OVC007 54.1 52.2 93% 29.8 0.0
06 20:15 SW 9 7.00 Overcast OVC007 53.8 52 94% 29.79 0.0
06 19:55 SW 9 7.00 Overcast OVC007 53.8 52 55.8 52.3 94% 29.79 0.0 0.09
06 19:35 SW 10 5.00 Fog/Mist OVC007 53.6 52 94% 29.78 0.0
06 19:15 SW 10 G 17 5.00 Fog/Mist OVC007 53.6 51.8 94% 29.79 0.0
06 18:55 SW 10 5.00 Fog/Mist OVC009 53.2 51.8 95% 29.78 0.0
06 18:35 SW 10 5.00 Fog/Mist OVC009 52.5 51.1 95% 29.78 0.0
06 18:15 S 8 5.00 Fog/Mist BKN011 OVC017 52.7 51.6 96% 29.78 0.0
06 17:55 SW 10 G 16 5.00 Fog/Mist BKN003 OVC015 52.7 52.5 99% 29.77 0.0 0.05
06 17:35 S 8 2.50 Heavy Drizzle OVC003 52.9 52.3 98% 29.78 0.0 0.05
06 17:15 SW 13 G 23 2.00 Heavy Rain BKN005 BKN009 OVC020 53.6 52 94% 29.78 0.0 0.02
06 16:55 SW 13 G 22 2.50 Rain SCT011 BKN042 OVC050 53.8 50.7 89% 29.79 0.0 0.02 0.03
06 16:35 S 15 G 21 5.00 Rain SCT044 BKN070 OVC085 54.5 49.8 84% 29.78 0.0
06 16:15 SW 12 G 17 7.00 Overcast BKN070 OVC080 54.5 50 85% 29.78 0.0
06 15:55 S 9 7.00 Light Drizzle SCT034 BKN070 OVC090 54.7 50.4 85% 29.79 0.0
06 15:35 SW 14 G 22 7.00 Light Drizzle SCT033 BKN085 OVC100 55.4 50.4 83% 29.8 0.0
06 15:15 SW 13 G 22 7.00 Light Rain SCT033 BKN070 OVC100 54.9 50.4 85% 29.8 0.0
06 14:55 S 15 G 23 5.00 Light Rain SCT033 BKN060 OVC070 54.5 50.4 86% 29.81 0.0 0.01
06 14:35 SW 13 G 18 7.00 Light Rain SCT031 SCT048 BKN060 55.4 49.8 82% 29.82 0.0
06 14:15 SW 13 G 20 7.00 Light Rain SCT031 BKN060 OVC100 55.4 49.8 82% 29.83 0.0
06 13:55 SW 12 G 18 7.00 Light Rain SCT037 SCT060 BKN075 56.1 49.1 60.3 56.1 77% 29.84 0.0 0.13 0.13
06 13:15 SW 14 G 24 10.00 Mostly Cloudy BKN085 BKN090 57.6 48.7 73% 29.85 0.0
06 12:55 SW 15 G 23 10.00 Partly Cloudy SCT085 57 48.9 74% 29.86 0.0
06 12:35 SW 15 G 23 10.00 Fair CLR 57.4 48.7 73% 29.86 0.0
06 12:15 S 12 G 23 10.00 Fair CLR 59.9 49.5 69% 29.87 0.0
06 11:55 SW 15 G 21 10.00 Fair CLR 57.7 49.5 74% 29.88 0.0
06 11:35 SW 15 G 25 10.00 Fair CLR 56.7 49.1 76% 29.89 0.0
Date Time (edt) Wind (mph) Vis. (mi.) Weather Sky Cond. Air Dwpt Max. Min. Relative Humidity Wind Chill (°F) Heat Index (°F) altimeter (in) sea level (mb) 1 hr 3 hr 6 hr
6 hour
Temperature (ºF) Pressure Precipitation (in)